createdAt,value
2018-10-19T00:00:24.466Z,91.40
2018-10-19T00:02:53.407Z,91.40
2018-10-19T00:05:22.003Z,91.50
2018-10-19T00:07:50.835Z,91.50
2018-10-19T00:10:19.355Z,91.40
2018-10-19T00:12:48.012Z,91.70
2018-10-19T00:15:16.557Z,91.70
2018-10-19T00:17:45.300Z,91.80
2018-10-19T00:20:13.872Z,91.90
2018-10-19T00:22:42.516Z,92.00
2018-10-19T00:25:11.063Z,92.10
2018-10-19T00:27:39.611Z,91.90
2018-10-19T00:30:09.444Z,92.00
2018-10-19T00:32:38.723Z,92.00
2018-10-19T00:35:08.507Z,92.10
2018-10-19T00:37:37.050Z,92.30
2018-10-19T00:40:06.131Z,92.60
2018-10-19T00:42:34.924Z,92.70
2018-10-19T00:45:03.652Z,92.70
2018-10-19T00:47:32.123Z,93.10
2018-10-19T00:50:00.657Z,92.80
2018-10-19T00:52:29.193Z,93.20
2018-10-19T00:54:57.789Z,93.10
2018-10-19T00:57:26.290Z,92.90
2018-10-19T00:59:54.805Z,93.00
2018-10-19T01:02:23.303Z,93.10
2018-10-19T01:04:51.888Z,93.20
2018-10-19T01:07:20.406Z,93.10
2018-10-19T01:09:48.951Z,92.80
2018-10-19T01:12:17.463Z,92.70
2018-10-19T01:14:46.030Z,92.70
2018-10-19T01:17:14.669Z,92.80
2018-10-19T01:19:43.099Z,92.90
2018-10-19T01:22:11.632Z,93.30
2018-10-19T01:24:40.220Z,93.50
2018-10-19T01:27:09.005Z,93.70
2018-10-19T01:29:37.463Z,93.60
2018-10-19T01:32:06.404Z,93.40
2018-10-19T01:34:34.935Z,93.20
2018-10-19T01:37:04.964Z,93.10
2018-10-19T01:39:33.522Z,93.10
2018-10-19T01:42:02.046Z,93.50
2018-10-19T01:44:32.078Z,93.10
2018-10-19T01:47:00.657Z,93.10
2018-10-19T01:49:29.179Z,93.10
2018-10-19T01:51:57.695Z,93.20
2018-10-19T01:54:26.249Z,93.20
2018-10-19T01:56:54.823Z,93.20
2018-10-19T01:59:23.360Z,93.50
2018-10-19T02:01:51.875Z,93.60
2018-10-19T02:04:20.571Z,93.60
2018-10-19T02:06:49.082Z,93.50
2018-10-19T02:09:17.617Z,93.50
2018-10-19T02:11:46.139Z,93.80
2018-10-19T02:14:14.687Z,93.70
2018-10-19T02:16:43.281Z,93.80
2018-10-19T02:19:11.840Z,93.70
2018-10-19T02:21:40.378Z,93.70
2018-10-19T02:24:08.916Z,93.80
2018-10-19T02:26:37.478Z,93.80
2018-10-19T02:29:06.096Z,93.80
2018-10-19T02:31:34.661Z,94.10
2018-10-19T02:34:03.236Z,94.30
2018-10-19T02:36:31.916Z,93.90
2018-10-19T02:39:00.562Z,93.90
2018-10-19T02:41:29.049Z,94.20
2018-10-19T02:43:57.939Z,94.10
2018-10-19T02:46:26.526Z,94.00
2018-10-19T02:48:55.083Z,94.00
2018-10-19T02:51:23.660Z,94.00
2018-10-19T02:53:52.193Z,94.30
2018-10-19T02:56:20.831Z,94.30
2018-10-19T02:58:49.375Z,94.20
2018-10-19T03:01:17.961Z,94.20
2018-10-19T03:03:46.518Z,94.30
2018-10-19T03:06:15.083Z,94.30
2018-10-19T03:08:43.591Z,94.50
2018-10-19T03:11:12.243Z,94.40
2018-10-19T03:13:40.725Z,94.40
2018-10-19T03:16:09.352Z,94.50
2018-10-19T03:18:38.106Z,94.50
2018-10-19T03:21:07.042Z,94.50
2018-10-19T03:23:35.528Z,94.40
2018-10-19T03:26:04.329Z,94.70
2018-10-19T03:28:32.889Z,94.50
2018-10-19T03:31:01.476Z,94.60
2018-10-19T03:33:29.999Z,94.70
2018-10-19T03:35:58.590Z,94.70
2018-10-19T03:38:27.212Z,94.60
2018-10-19T03:40:55.796Z,94.50
2018-10-19T03:43:24.645Z,94.70
2018-10-19T03:45:53.220Z,94.70
2018-10-19T03:48:21.852Z,94.70
2018-10-19T03:50:50.416Z,94.70
2018-10-19T03:53:19.044Z,94.70
2018-10-19T03:55:47.565Z,94.60
2018-10-19T03:58:16.098Z,94.70
2018-10-19T04:00:44.646Z,94.90
2018-10-19T04:03:13.229Z,95.00
2018-10-19T04:05:41.715Z,94.90
2018-10-19T04:08:10.294Z,94.80
2018-10-19T04:10:38.966Z,94.80
2018-10-19T04:13:07.506Z,94.80
2018-10-19T04:15:36.058Z,94.70
2018-10-19T04:18:04.595Z,94.70
2018-10-19T04:20:33.155Z,94.70
2018-10-19T04:23:10.257Z,94.70
2018-10-19T04:25:39.571Z,94.70
2018-10-19T04:28:08.108Z,94.60
2018-10-19T04:30:37.631Z,94.90
2018-10-19T04:33:06.715Z,94.90
2018-10-19T04:35:35.276Z,94.90
2018-10-19T04:38:03.926Z,95.10
2018-10-19T04:40:32.485Z,95.10
2018-10-19T04:43:01.466Z,95.70
2018-10-19T04:45:30.070Z,95.30
2018-10-19T04:47:58.591Z,95.60
2018-10-19T04:50:27.131Z,95.50
2018-10-19T04:52:55.745Z,95.70
2018-10-19T04:55:24.303Z,95.50
2018-10-19T04:57:52.829Z,95.70
2018-10-19T05:00:21.955Z,95.40
2018-10-19T05:02:51.435Z,95.20
2018-10-19T05:05:20.260Z,95.30
2018-10-19T05:07:48.746Z,95.30
2018-10-19T05:10:17.353Z,95.40
2018-10-19T05:12:45.927Z,95.40
2018-10-19T05:15:14.472Z,95.30
2018-10-19T05:17:43.016Z,95.30
2018-10-19T05:20:12.912Z,95.40
2018-10-19T05:22:41.387Z,95.00
2018-10-19T05:25:12.399Z,95.30
2018-10-19T05:27:41.066Z,95.30
2018-10-19T05:30:11.831Z,95.60
2018-10-19T05:32:41.160Z,95.40
2018-10-19T05:35:09.780Z,95.30
2018-10-19T05:37:39.322Z,95.40
2018-10-19T05:40:09.096Z,95.40
2018-10-19T05:42:37.859Z,95.50
2018-10-19T05:45:08.584Z,95.70
2018-10-19T05:47:37.129Z,95.70
2018-10-19T05:50:06.746Z,95.80
2018-10-19T05:52:35.290Z,95.90
2018-10-19T05:55:03.889Z,95.80
2018-10-19T05:57:32.437Z,95.80
2018-10-19T06:00:01.008Z,95.90
2018-10-19T06:02:30.078Z,95.90
2018-10-19T06:04:58.653Z,96.10
2018-10-19T06:07:27.128Z,96.10
2018-10-19T06:09:55.728Z,96.20
2018-10-19T06:12:24.274Z,96.30
2018-10-19T06:14:52.784Z,96.20
2018-10-19T06:17:21.305Z,96.10
2018-10-19T06:19:49.840Z,96.00
2018-10-19T06:22:18.380Z,96.10
2018-10-19T06:24:47.118Z,96.00
2018-10-19T06:27:15.698Z,96.00
2018-10-19T06:29:44.205Z,96.00
2018-10-19T06:32:12.861Z,96.20
2018-10-19T06:34:41.366Z,95.80
2018-10-19T06:37:09.903Z,95.80
2018-10-19T06:39:38.440Z,95.80
2018-10-19T06:42:06.993Z,95.90
2018-10-19T06:44:35.548Z,95.60
2018-10-19T06:47:04.175Z,95.70
2018-10-19T06:49:32.630Z,95.80
2018-10-19T06:52:01.180Z,95.60
2018-10-19T06:54:29.791Z,95.60
2018-10-19T06:56:58.338Z,95.60
2018-10-19T06:59:26.946Z,95.50
2018-10-19T07:01:55.515Z,95.40
2018-10-19T07:04:24.043Z,95.30
2018-10-19T07:06:52.603Z,95.00
2018-10-19T07:09:21.113Z,95.00
2018-10-19T07:11:49.658Z,94.70
2018-10-19T07:14:18.255Z,94.70
2018-10-19T07:16:46.763Z,94.60
2018-10-19T07:19:15.288Z,94.50
2018-10-19T07:21:43.853Z,94.50
2018-10-19T07:24:12.416Z,94.20
2018-10-19T07:26:41.273Z,94.00
2018-10-19T07:29:10.400Z,93.80
2018-10-19T07:31:39.179Z,93.70
2018-10-19T07:34:07.869Z,93.80
2018-10-19T07:36:36.479Z,93.80
2018-10-19T07:39:06.632Z,93.90
2018-10-19T07:41:35.183Z,93.90
2018-10-19T07:44:03.788Z,93.90
2018-10-19T07:46:32.351Z,93.70
2018-10-19T07:49:01.055Z,93.40
2018-10-19T07:51:29.967Z,93.00
2018-10-19T07:53:58.553Z,92.80
2018-10-19T07:56:27.049Z,92.40
2018-10-19T07:58:55.587Z,92.20
2018-10-19T08:01:24.795Z,92.10
2018-10-19T08:03:53.795Z,91.90
2018-10-19T08:06:22.365Z,91.50
2018-10-19T08:08:50.900Z,91.30
2018-10-19T08:11:19.431Z,91.20
2018-10-19T08:13:48.043Z,91.00
2018-10-19T08:16:16.610Z,90.90
2018-10-19T08:18:45.095Z,90.80
2018-10-19T08:21:13.664Z,90.80
2018-10-19T08:23:42.192Z,90.70
2018-10-19T08:26:10.840Z,90.60
2018-10-19T08:28:39.332Z,90.50
2018-10-19T08:31:07.869Z,90.70
2018-10-19T08:33:36.414Z,90.70
2018-10-19T08:36:04.989Z,90.70
2018-10-19T08:38:33.544Z,90.40
2018-10-19T08:41:02.793Z,90.20
2018-10-19T08:43:31.324Z,90.10
2018-10-19T08:46:05.131Z,90.00
2018-10-19T08:48:33.965Z,89.90
2018-10-19T08:51:02.708Z,89.60
2018-10-19T08:53:31.277Z,89.30
2018-10-19T08:55:59.877Z,89.80
2018-10-19T08:58:28.459Z,88.70
2018-10-19T09:00:56.979Z,88.50
2018-10-19T09:03:25.519Z,88.70
2018-10-19T09:05:54.066Z,88.80
2018-10-19T09:08:22.608Z,88.90
2018-10-19T09:10:51.359Z,88.60
2018-10-19T09:13:20.124Z,88.30
2018-10-19T09:15:48.639Z,87.80
2018-10-19T09:18:17.227Z,87.40
2018-10-19T09:20:45.748Z,86.70
2018-10-19T09:23:14.654Z,86.80
2018-10-19T09:25:43.213Z,86.40
2018-10-19T09:28:11.756Z,85.50
2018-10-19T09:30:40.280Z,84.80
2018-10-19T09:33:08.846Z,84.20
2018-10-19T09:35:37.464Z,83.70
2018-10-19T09:38:06.326Z,83.00
2018-10-19T09:40:34.812Z,82.10
2018-10-19T09:43:03.331Z,81.60
2018-10-19T09:45:31.846Z,81.40
2018-10-19T09:48:00.415Z,81.00
2018-10-19T09:50:28.903Z,80.20
2018-10-19T09:52:57.447Z,79.50
2018-10-19T09:55:25.980Z,79.20
2018-10-19T09:57:54.520Z,79.20
2018-10-19T10:00:29.296Z,78.20
2018-10-19T10:02:57.831Z,77.70
2018-10-19T10:05:26.323Z,77.60
2018-10-19T10:07:54.987Z,77.40
2018-10-19T10:10:23.565Z,76.80
2018-10-19T10:12:52.095Z,77.00
2018-10-19T10:15:21.564Z,76.40
2018-10-19T10:17:50.076Z,76.70
2018-10-19T10:20:18.610Z,76.10
2018-10-19T10:22:47.140Z,75.70
2018-10-19T10:25:15.811Z,75.20
2018-10-19T10:27:44.344Z,74.50
2018-10-19T10:30:13.016Z,73.20
2018-10-19T10:32:41.695Z,72.10
2018-10-19T10:35:10.879Z,69.90
2018-10-19T10:37:39.389Z,68.70
2018-10-19T10:40:08.439Z,67.20
2018-10-19T10:42:37.465Z,65.70
2018-10-19T10:45:06.686Z,64.00
2018-10-19T10:47:35.230Z,62.50
2018-10-19T10:50:03.843Z,60.20
2018-10-19T10:52:32.342Z,59.00
2018-10-19T10:55:01.024Z,58.30
2018-10-19T10:57:29.527Z,56.60
2018-10-19T10:59:58.062Z,55.90
2018-10-19T11:02:26.677Z,52.80
2018-10-19T11:04:55.219Z,52.40
2018-10-19T11:07:23.802Z,50.50
2018-10-19T11:09:52.468Z,50.20
2018-10-19T11:12:21.018Z,50.10
2018-10-19T11:14:49.545Z,49.70
2018-10-19T11:17:18.513Z,48.90
2018-10-19T11:19:47.046Z,48.20
2018-10-19T11:22:15.570Z,47.50
2018-10-19T11:24:44.085Z,47.30
2018-10-19T11:27:12.587Z,46.20
2018-10-19T11:29:41.838Z,45.20
2018-10-19T11:32:11.462Z,45.00
2018-10-19T11:34:40.937Z,44.80
2018-10-19T11:37:10.642Z,44.30
2018-10-19T11:39:49.758Z,43.40
2018-10-19T11:42:19.191Z,42.30
2018-10-19T11:44:48.680Z,41.90
2018-10-19T11:47:18.173Z,41.50
2018-10-19T11:49:47.563Z,41.30
2018-10-19T11:52:17.124Z,41.30
2018-10-19T11:54:46.418Z,40.40
2018-10-19T11:57:15.926Z,39.80
2018-10-19T11:59:45.308Z,39.10
2018-10-19T12:02:14.560Z,39.10
2018-10-19T12:04:44.134Z,39.20
2018-10-19T12:07:13.507Z,39.40
2018-10-19T12:09:43.435Z,39.20
2018-10-19T12:12:12.821Z,38.20
2018-10-19T12:14:42.900Z,37.30
2018-10-19T12:17:12.106Z,37.40
2018-10-19T12:19:41.197Z,36.00
2018-10-19T12:22:10.370Z,36.10
2018-10-19T12:24:40.134Z,36.10
2018-10-19T12:27:09.375Z,36.10
2018-10-19T12:29:38.512Z,36.50
2018-10-19T12:32:08.156Z,36.50
2018-10-19T12:34:37.853Z,35.90
2018-10-19T12:37:07.967Z,35.10
2018-10-19T12:39:38.081Z,34.70
2018-10-19T12:42:07.572Z,35.10
2018-10-19T12:44:37.544Z,35.10
2018-10-19T12:47:18.067Z,35.70
2018-10-19T12:49:47.534Z,34.80
2018-10-19T12:52:17.111Z,33.80
2018-10-19T12:54:46.552Z,33.30
2018-10-19T12:57:16.087Z,32.80
2018-10-19T12:59:44.614Z,32.10
2018-10-19T13:02:14.488Z,31.90
2018-10-19T13:04:43.017Z,32.00
2018-10-19T13:07:11.592Z,31.30
2018-10-19T13:09:40.139Z,31.70
2018-10-19T13:12:08.673Z,31.50
2018-10-19T13:14:37.186Z,31.80
2018-10-19T13:17:06.453Z,32.00
2018-10-19T13:19:35.356Z,31.90
2018-10-19T13:22:04.175Z,31.70
2018-10-19T13:24:32.699Z,31.50
2018-10-19T13:27:01.473Z,31.40
2018-10-19T13:29:29.916Z,31.50
2018-10-19T13:31:58.601Z,31.20
2018-10-19T13:34:27.333Z,30.90
2018-10-19T13:36:55.872Z,31.80
2018-10-19T13:39:24.367Z,32.20
2018-10-19T13:41:52.899Z,32.10
2018-10-19T13:44:21.383Z,32.00
2018-10-19T13:46:49.930Z,31.80
2018-10-19T13:49:18.480Z,31.70
2018-10-19T13:51:47.020Z,31.80
2018-10-19T13:54:15.520Z,31.50
2018-10-19T13:56:44.070Z,31.50
2018-10-19T13:59:12.663Z,31.40
2018-10-19T14:01:41.163Z,31.50
2018-10-19T14:04:09.699Z,31.90
2018-10-19T14:06:38.215Z,31.60
2018-10-19T14:09:08.903Z,31.50
2018-10-19T14:11:37.743Z,31.20
2018-10-19T14:14:06.314Z,30.70
2018-10-19T14:16:34.840Z,30.80
2018-10-19T14:19:03.487Z,30.80
2018-10-19T14:21:32.048Z,31.30
2018-10-19T14:24:00.538Z,30.90
2018-10-19T14:26:29.110Z,30.90
2018-10-19T14:28:57.601Z,31.00
2018-10-19T14:31:26.166Z,31.00
2018-10-19T14:33:54.663Z,31.50
2018-10-19T14:36:23.197Z,31.50
2018-10-19T14:38:51.751Z,31.60
2018-10-19T14:41:20.246Z,32.10
2018-10-19T14:43:48.777Z,32.20
2018-10-19T14:46:17.317Z,32.10
2018-10-19T14:48:45.892Z,32.20
2018-10-19T14:51:14.429Z,32.50
2018-10-19T14:53:42.944Z,32.40
2018-10-19T14:56:11.434Z,32.30
2018-10-19T14:58:39.955Z,32.50
2018-10-19T15:01:08.501Z,32.60
2018-10-19T15:03:37.031Z,32.90
2018-10-19T15:06:06.119Z,33.00
2018-10-19T15:08:34.971Z,32.90
2018-10-19T15:11:03.540Z,32.90
2018-10-19T15:13:31.995Z,33.30
2018-10-19T15:16:00.541Z,34.00
2018-10-19T15:18:29.099Z,34.50
2018-10-19T15:20:57.617Z,34.80
2018-10-19T15:23:26.140Z,35.00
2018-10-19T15:25:54.630Z,35.60
2018-10-19T15:28:23.204Z,36.50
2018-10-19T15:30:51.686Z,35.90
2018-10-19T15:33:20.309Z,36.30
2018-10-19T15:35:48.848Z,36.70
2018-10-19T15:38:17.384Z,37.00
2018-10-19T15:40:45.918Z,37.80
2018-10-19T15:43:15.053Z,38.20
2018-10-19T15:45:43.559Z,39.40
2018-10-19T15:48:12.174Z,40.50
2018-10-19T15:50:40.634Z,41.80
2018-10-19T15:53:09.270Z,42.80
2018-10-19T15:55:37.762Z,43.90
2018-10-19T15:58:06.537Z,44.70
2018-10-19T16:00:35.094Z,45.40
2018-10-19T16:03:03.593Z,46.10
2018-10-19T16:05:32.092Z,46.90
2018-10-19T16:08:00.676Z,47.30
2018-10-19T16:10:29.275Z,48.20
2018-10-19T16:12:57.807Z,48.80
2018-10-19T16:15:26.293Z,49.30
2018-10-19T16:17:54.837Z,50.10
2018-10-19T16:20:23.340Z,50.70
2018-10-19T16:22:51.891Z,50.90
2018-10-19T16:25:20.404Z,51.70
2018-10-19T16:27:48.895Z,51.90
2018-10-19T16:30:17.461Z,52.80
2018-10-19T16:32:46.048Z,53.20
2018-10-19T16:35:14.553Z,54.10
2018-10-19T16:37:43.042Z,54.60
2018-10-19T16:40:11.648Z,55.00
2018-10-19T16:42:40.166Z,55.40
2018-10-19T16:45:09.337Z,56.00
2018-10-19T16:47:37.854Z,56.60
2018-10-19T16:50:06.712Z,57.60
2018-10-19T16:52:35.340Z,57.80
2018-10-19T16:55:03.936Z,57.80
2018-10-19T16:57:33.127Z,58.30
2018-10-19T17:00:01.800Z,58.80
2018-10-19T17:02:30.811Z,59.20
2018-10-19T17:04:59.386Z,59.80
2018-10-19T17:07:27.908Z,60.60
2018-10-19T17:09:56.448Z,61.60
2018-10-19T17:12:24.948Z,62.00
2018-10-19T17:14:53.536Z,62.80
2018-10-19T17:17:22.026Z,63.70
2018-10-19T17:19:50.596Z,63.90
2018-10-19T17:22:19.112Z,64.70
2018-10-19T17:24:47.642Z,65.30
2018-10-19T17:27:16.253Z,66.00
2018-10-19T17:29:44.749Z,66.50
2018-10-19T17:32:13.248Z,66.70
2018-10-19T17:34:42.379Z,67.70
2018-10-19T17:37:11.792Z,68.20
2018-10-19T17:39:40.941Z,68.80
2018-10-19T17:42:10.479Z,69.50
2018-10-19T17:44:39.597Z,70.20
2018-10-19T17:47:10.694Z,70.40
2018-10-19T17:49:40.135Z,71.20
2018-10-19T17:52:09.557Z,71.20
2018-10-19T17:54:38.507Z,71.70
2018-10-19T17:57:07.455Z,72.20
2018-10-19T17:59:36.198Z,72.70
2018-10-19T18:02:04.912Z,72.90
2018-10-19T18:04:33.498Z,73.80
2018-10-19T18:07:01.984Z,74.10
2018-10-19T18:09:31.620Z,75.10
2018-10-19T18:12:00.133Z,74.70
2018-10-19T18:14:28.662Z,75.40
2018-10-19T18:16:57.171Z,75.90
2018-10-19T18:19:25.695Z,77.40
2018-10-19T18:21:54.478Z,77.30
2018-10-19T18:24:22.896Z,77.40
2018-10-19T18:26:51.941Z,79.10
2018-10-19T18:29:20.951Z,79.90
2018-10-19T18:31:49.445Z,79.20
2018-10-19T18:34:17.998Z,79.90
2018-10-19T18:36:46.583Z,80.00
2018-10-19T18:39:15.794Z,82.50
2018-10-19T18:41:44.897Z,81.60
2018-10-19T18:44:13.516Z,81.30
2018-10-19T18:46:41.964Z,81.50
2018-10-19T18:49:10.525Z,81.40
2018-10-19T18:51:39.084Z,81.20
2018-10-19T18:54:07.582Z,80.70
2018-10-19T18:56:36.239Z,80.30
2018-10-19T18:59:05.113Z,80.40
2018-10-19T19:01:33.660Z,82.70
2018-10-19T19:04:02.425Z,83.70
2018-10-19T19:06:30.995Z,82.80
2018-10-19T19:08:59.541Z,83.00
2018-10-19T19:11:28.135Z,83.90
2018-10-19T19:13:56.663Z,83.50
2018-10-19T19:16:27.447Z,83.60
2018-10-19T19:18:56.156Z,83.90
2018-10-19T19:21:24.820Z,83.80
2018-10-19T19:23:58.645Z,83.60
2018-10-19T19:26:28.067Z,83.70
2018-10-19T19:28:57.143Z,83.90
2018-10-19T19:31:25.682Z,84.50
2018-10-19T19:33:59.604Z,85.00
2018-10-19T19:36:28.130Z,84.30
2018-10-19T19:38:56.693Z,84.90
2018-10-19T19:41:30.566Z,84.80
2018-10-19T19:43:59.428Z,85.50
2018-10-19T19:46:28.025Z,86.00
2018-10-19T19:49:01.987Z,85.40
2018-10-19T19:51:30.577Z,85.40
2018-10-19T19:53:59.108Z,86.00
2018-10-19T19:56:27.604Z,86.50
2018-10-19T19:58:56.193Z,86.60
2018-10-19T20:01:24.708Z,86.80
2018-10-19T20:03:53.312Z,86.30
2018-10-19T20:06:22.088Z,87.00
2018-10-19T20:08:50.545Z,87.10
2018-10-19T20:11:19.075Z,87.00
2018-10-19T20:13:47.877Z,87.00
2018-10-19T20:16:16.406Z,87.10
2018-10-19T20:18:45.404Z,87.30
2018-10-19T20:21:13.939Z,87.70
2018-10-19T20:23:42.513Z,88.60
2018-10-19T20:26:11.140Z,88.90
2018-10-19T20:28:40.936Z,89.40
2018-10-19T20:31:10.112Z,90.10
2018-10-19T20:33:38.645Z,90.50
2018-10-19T20:36:07.278Z,90.30
2018-10-19T20:38:35.820Z,90.60
2018-10-19T20:41:04.741Z,90.20
2018-10-19T20:43:33.222Z,90.70
2018-10-19T20:46:01.721Z,90.90
2018-10-19T20:48:30.242Z,90.70
2018-10-19T20:50:59.039Z,90.40
2018-10-19T20:53:27.593Z,90.30
2018-10-19T20:55:56.452Z,90.20
2018-10-19T20:58:24.981Z,90.20
2018-10-19T21:00:53.595Z,90.20
2018-10-19T21:03:22.086Z,90.10
2018-10-19T21:05:50.592Z,90.20
2018-10-19T21:08:19.128Z,90.00
2018-10-19T21:10:47.626Z,90.00
2018-10-19T21:13:16.178Z,89.40
2018-10-19T21:15:44.697Z,90.00
2018-10-19T21:18:13.252Z,90.00
2018-10-19T21:20:42.332Z,90.30
2018-10-19T21:23:10.907Z,90.30
2018-10-19T21:25:39.396Z,90.30
2018-10-19T21:28:07.936Z,90.10
2018-10-19T21:30:36.439Z,90.10
2018-10-19T21:33:06.380Z,90.00
2018-10-19T21:35:34.936Z,90.10
2018-10-19T21:38:03.563Z,90.00
2018-10-19T21:40:32.058Z,89.80
2018-10-19T21:43:01.199Z,89.80
2018-10-19T21:45:29.699Z,90.20
2018-10-19T21:47:58.247Z,90.00
2018-10-19T21:50:26.726Z,89.90
2018-10-19T21:52:55.279Z,89.90
2018-10-19T21:55:23.795Z,90.00
2018-10-19T21:57:52.339Z,90.00
2018-10-19T22:00:20.860Z,90.40
2018-10-19T22:02:49.370Z,90.30
2018-10-19T22:05:18.211Z,90.20
2018-10-19T22:07:46.921Z,90.30
2018-10-19T22:10:15.283Z,90.60
2018-10-19T22:12:43.771Z,90.60
2018-10-19T22:15:12.294Z,90.70
2018-10-19T22:17:40.848Z,90.90
2018-10-19T22:20:10.331Z,91.40
2018-10-19T22:22:38.816Z,91.30
2018-10-19T22:25:07.430Z,91.10
2018-10-19T22:27:35.900Z,91.00
2018-10-19T22:30:04.962Z,91.10
2018-10-19T22:32:33.457Z,90.90
2018-10-19T22:35:02.042Z,91.00
2018-10-19T22:37:30.555Z,91.00
2018-10-19T22:39:59.053Z,91.10
2018-10-19T22:42:30.293Z,91.00
2018-10-19T22:45:00.755Z,90.80
2018-10-19T22:47:29.300Z,90.70
2018-10-19T22:49:57.832Z,90.70
2018-10-19T22:52:26.428Z,90.50
2018-10-19T22:54:54.982Z,90.40
2018-10-19T22:57:23.516Z,90.40
2018-10-19T22:59:52.275Z,90.50
2018-10-19T23:02:20.791Z,91.20
2018-10-19T23:04:49.343Z,91.40
2018-10-19T23:07:17.904Z,91.10
2018-10-19T23:09:46.492Z,91.10
2018-10-19T23:12:14.983Z,91.20
2018-10-19T23:14:43.572Z,91.20
2018-10-19T23:17:12.128Z,91.30
2018-10-19T23:19:41.488Z,91.50
2018-10-19T23:22:10.021Z,91.50
2018-10-19T23:24:38.566Z,91.40
2018-10-19T23:27:07.073Z,91.50
2018-10-19T23:29:35.585Z,91.50
2018-10-19T23:32:04.201Z,91.50
2018-10-19T23:34:32.768Z,91.50
2018-10-19T23:37:01.258Z,91.50
2018-10-19T23:39:29.805Z,91.60
2018-10-19T23:41:58.319Z,91.60
2018-10-19T23:44:26.856Z,91.60
2018-10-19T23:46:55.404Z,91.70
2018-10-19T23:49:23.919Z,91.60
2018-10-19T23:51:52.439Z,91.40
2018-10-19T23:54:20.943Z,91.40
2018-10-19T23:56:49.432Z,91.30
2018-10-19T23:59:17.990Z,91.30
